createdAt,value
2022-08-25T00:00:12.809Z,71.81
2022-08-25T00:02:40.748Z,72.51
2022-08-25T00:05:19.134Z,73.39
2022-08-25T00:07:46.877Z,73.04
2022-08-25T00:10:14.270Z,73.15
2022-08-25T00:12:41.651Z,74.95
2022-08-25T00:15:09.887Z,74.56
2022-08-25T00:17:37.417Z,74.67
2022-08-25T00:20:06.429Z,75.05
2022-08-25T00:22:34.068Z,75.65
2022-08-25T00:25:01.447Z,75.75
2022-08-25T00:27:28.849Z,74.54
2022-08-25T00:29:56.505Z,74.79
2022-08-25T00:32:25.538Z,73.89
2022-08-25T00:34:53.310Z,72.16
2022-08-25T00:37:20.997Z,72.04
2022-08-25T00:39:48.492Z,72.81
2022-08-25T00:42:16.451Z,73.21
2022-08-25T00:44:44.267Z,73.04
2022-08-25T00:47:11.653Z,73.18
2022-08-25T00:49:44.081Z,72.61
2022-08-25T00:52:19.103Z,72.59
2022-08-25T00:54:51.434Z,74.24
2022-08-25T00:57:33.925Z,74.35
2022-08-25T01:00:06.808Z,75.75
2022-08-25T01:02:34.559Z,76.27
2022-08-25T01:05:02.123Z,75.20
2022-08-25T01:07:29.541Z,75.80
2022-08-25T01:09:57.391Z,73.84
2022-08-25T01:12:24.777Z,73.99
2022-08-25T01:14:53.132Z,73.95
2022-08-25T01:17:21.946Z,74.76
2022-08-25T01:19:49.332Z,75.47
2022-08-25T01:22:17.346Z,75.54
2022-08-25T01:24:48.104Z,73.61
2022-08-25T01:27:15.490Z,72.86
2022-08-25T01:29:42.898Z,72.43
2022-08-25T01:32:13.267Z,73.55
2022-08-25T01:34:43.239Z,75.11
2022-08-25T01:37:13.688Z,74.69
2022-08-25T01:39:42.346Z,73.55
2022-08-25T01:42:14.545Z,74.03
2022-08-25T01:44:44.176Z,72.72
2022-08-25T01:47:12.208Z,72.67
2022-08-25T01:49:39.846Z,72.90
2022-08-25T01:52:28.663Z,73.93
2022-08-25T01:54:56.073Z,73.93
2022-08-25T01:57:24.260Z,75.60
2022-08-25T01:59:51.705Z,74.97
2022-08-25T02:02:19.156Z,74.80
2022-08-25T02:04:48.704Z,73.84
2022-08-25T02:07:18.556Z,73.97
2022-08-25T02:09:46.065Z,73.94
2022-08-25T02:12:13.988Z,73.39
2022-08-25T02:14:41.614Z,73.75
2022-08-25T02:17:09.775Z,73.37
2022-08-25T02:19:37.739Z,73.53
2022-08-25T02:22:05.337Z,73.77
2022-08-25T02:24:32.825Z,73.51
2022-08-25T02:27:00.586Z,73.31
2022-08-25T02:29:28.178Z,73.66
2022-08-25T02:31:55.643Z,74.16
2022-08-25T02:34:23.858Z,73.61
2022-08-25T02:36:51.249Z,74.34
2022-08-25T02:39:18.678Z,75.00
2022-08-25T02:41:46.387Z,74.84
2022-08-25T02:44:14.162Z,74.65
2022-08-25T02:46:41.740Z,74.23
2022-08-25T02:51:37.025Z,73.58
2022-08-25T02:54:05.550Z,73.42
2022-08-25T02:56:33.255Z,74.99
2022-08-25T02:59:01.919Z,74.38
2022-08-25T03:01:30.008Z,74.18
2022-08-25T03:03:57.807Z,73.55
2022-08-25T03:06:25.552Z,73.26
2022-08-25T03:08:53.340Z,73.24
2022-08-25T03:11:21.392Z,73.58
2022-08-25T03:13:51.198Z,73.94
2022-08-25T03:16:19.517Z,75.51
2022-08-25T03:18:48.315Z,74.70
2022-08-25T03:21:16.355Z,74.44
2022-08-25T03:23:45.653Z,72.81
2022-08-25T03:26:32.042Z,73.74
2022-08-25T03:29:00.894Z,73.07
2022-08-25T03:31:28.643Z,73.54
2022-08-25T03:33:56.192Z,74.23
2022-08-25T03:36:24.361Z,73.61
2022-08-25T03:38:53.297Z,73.91
2022-08-25T03:41:23.240Z,73.29
2022-08-25T03:43:51.349Z,73.24
2022-08-25T03:46:34.549Z,75.01
2022-08-25T03:49:03.482Z,74.29
2022-08-25T03:51:34.889Z,75.28
2022-08-25T03:54:03.121Z,75.32
2022-08-25T03:56:31.143Z,75.00
2022-08-25T03:58:58.761Z,75.39
2022-08-25T04:01:26.323Z,75.58
2022-08-25T04:03:54.262Z,75.88
2022-08-25T04:06:22.117Z,75.27
2022-08-25T04:08:49.618Z,75.18
2022-08-25T04:11:20.051Z,76.39
2022-08-25T04:13:47.951Z,77.02
2022-08-25T04:16:19.038Z,76.60
2022-08-25T04:18:47.998Z,76.16
2022-08-25T04:21:16.629Z,74.16
2022-08-25T04:23:45.239Z,74.88
2022-08-25T04:26:15.432Z,74.68
2022-08-25T04:28:43.177Z,75.39
2022-08-25T04:31:11.900Z,75.87
2022-08-25T04:33:40.179Z,75.20
2022-08-25T04:36:12.231Z,74.41
2022-08-25T04:38:41.924Z,74.96
2022-08-25T04:41:10.960Z,74.93
2022-08-25T04:43:40.472Z,74.63
2022-08-25T04:46:12.871Z,72.75
2022-08-25T04:48:41.032Z,73.09
2022-08-25T04:51:14.876Z,70.16
2022-08-25T04:53:43.054Z,70.48
2022-08-25T04:56:13.668Z,69.28
2022-08-25T04:58:42.140Z,68.98
2022-08-25T05:01:18.963Z,68.78
2022-08-25T05:03:48.749Z,68.45
2022-08-25T05:06:16.493Z,68.31
2022-08-25T05:08:45.888Z,67.51
2022-08-25T05:11:16.593Z,65.79
2022-08-25T05:13:51.666Z,66.15
2022-08-25T05:16:21.543Z,65.48
2022-08-25T05:18:50.905Z,64.64
2022-08-25T05:21:21.830Z,64.33
2022-08-25T05:23:49.273Z,63.49
2022-08-25T05:26:21.922Z,63.03
2022-08-25T05:28:51.303Z,63.39
2022-08-25T05:31:19.950Z,64.32
2022-08-25T05:33:47.983Z,63.66
2022-08-25T05:36:15.931Z,63.89
2022-08-25T05:38:43.910Z,64.18
2022-08-25T05:41:18.151Z,64.15
2022-08-25T05:43:48.828Z,65.21
2022-08-25T05:46:18.620Z,64.42
2022-08-25T05:48:46.321Z,64.37
2022-08-25T05:51:15.026Z,63.98
2022-08-25T05:53:44.561Z,64.88
2022-08-25T05:56:14.183Z,63.50
2022-08-25T05:58:42.752Z,66.06
2022-08-25T06:01:29.646Z,63.23
2022-08-25T06:03:57.438Z,61.30
2022-08-25T06:06:24.864Z,60.96
2022-08-25T06:08:52.285Z,61.89
2022-08-25T06:11:19.952Z,62.80
2022-08-25T06:13:47.350Z,63.70
2022-08-25T06:16:14.772Z,62.94
2022-08-25T06:18:42.470Z,63.06
2022-08-25T06:21:12.701Z,62.87
2022-08-25T06:23:40.699Z,61.75
2022-08-25T06:26:19.541Z,62.23
2022-08-25T06:28:50.379Z,62.38
2022-08-25T06:31:19.540Z,61.83
2022-08-25T06:33:47.073Z,61.08
2022-08-25T06:36:15.356Z,62.77
2022-08-25T06:38:43.701Z,61.40
2022-08-25T06:41:11.072Z,61.37
2022-08-25T06:43:41.701Z,61.99
2022-08-25T06:46:16.040Z,60.51
2022-08-25T06:48:43.549Z,62.08
2022-08-25T06:51:14.329Z,61.15
2022-08-25T06:53:43.176Z,59.07
2022-08-25T06:56:11.149Z,57.42
2022-08-25T06:58:39.185Z,57.71
2022-08-25T07:01:15.900Z,57.26
2022-08-25T07:03:48.481Z,59.29
2022-08-25T07:06:18.729Z,55.80
2022-08-25T07:08:48.011Z,58.72
2022-08-25T07:11:17.423Z,55.93
2022-08-25T07:13:45.814Z,56.10
2022-08-25T07:16:15.531Z,57.61
2022-08-25T07:18:44.806Z,58.09
2022-08-25T07:21:13.320Z,58.53
2022-08-25T07:23:41.500Z,59.20
2022-08-25T07:28:59.715Z,56.50
2022-08-25T07:31:29.767Z,56.66
2022-08-25T07:34:16.989Z,55.85
2022-08-25T07:36:44.990Z,53.92
2022-08-25T07:39:12.429Z,53.04
2022-08-25T07:41:41.875Z,56.87
2022-08-25T07:44:11.305Z,55.44
2022-08-25T07:46:38.872Z,52.86
2022-08-25T07:49:16.488Z,54.28
2022-08-25T07:52:04.463Z,55.29
2022-08-25T07:54:35.194Z,53.12
2022-08-25T07:57:04.560Z,55.88
2022-08-25T07:59:38.962Z,54.87
2022-08-25T08:02:16.037Z,53.21
2022-08-25T08:04:49.432Z,51.04
2022-08-25T08:07:18.885Z,51.81
2022-08-25T08:09:48.719Z,51.08
2022-08-25T08:12:20.411Z,49.83
2022-08-25T08:14:51.233Z,49.14
2022-08-25T08:17:18.683Z,48.41
2022-08-25T08:19:46.911Z,52.00
2022-08-25T08:22:15.729Z,51.18
2022-08-25T08:24:56.127Z,50.81
2022-08-25T08:27:24.762Z,50.31
2022-08-25T08:29:53.560Z,50.47
2022-08-25T08:32:31.462Z,51.07
2022-08-25T08:35:08.695Z,50.47
2022-08-25T08:37:39.716Z,50.36
2022-08-25T08:40:09.191Z,49.23
2022-08-25T08:42:47.088Z,48.75
2022-08-25T08:45:23.853Z,48.59
2022-08-25T08:48:01.332Z,49.27
2022-08-25T08:50:57.428Z,49.71
2022-08-25T08:53:36.168Z,50.40
2022-08-25T08:56:07.096Z,49.05
2022-08-25T08:58:49.825Z,50.75
2022-08-25T09:01:34.283Z,49.04
2022-08-25T09:04:21.067Z,49.21
2022-08-25T09:06:52.245Z,48.31
2022-08-25T09:09:35.628Z,48.93
2022-08-25T09:12:11.462Z,49.23
2022-08-25T09:14:54.336Z,50.22
2022-08-25T09:17:37.541Z,49.70
2022-08-25T09:20:30.240Z,48.81
2022-08-25T09:23:07.026Z,48.22
2022-08-25T09:26:02.583Z,48.15
2022-08-25T09:28:36.769Z,47.49
2022-08-25T09:31:13.498Z,50.20
2022-08-25T09:33:41.284Z,52.17
2022-08-25T09:36:09.210Z,48.90
2022-08-25T09:38:36.920Z,49.13
2022-08-25T09:41:06.724Z,49.23
2022-08-25T09:43:37.307Z,44.35
2022-08-25T09:46:14.953Z,46.64
2022-08-25T09:49:11.630Z,45.89
2022-08-25T09:51:43.376Z,46.67
2022-08-25T09:54:14.259Z,44.40
2022-08-25T09:56:59.373Z,46.37
2022-08-25T09:59:35.210Z,44.17
2022-08-25T10:02:25.332Z,44.69
2022-08-25T10:04:54.013Z,45.18
2022-08-25T10:07:26.765Z,44.84
2022-08-25T10:09:59.985Z,44.09
2022-08-25T10:12:42.659Z,42.42
2022-08-25T10:15:30.081Z,41.60
2022-08-25T10:18:22.417Z,41.24
2022-08-25T10:21:07.641Z,44.19
2022-08-25T10:23:39.144Z,42.62
2022-08-25T10:26:41.388Z,43.34
2022-08-25T10:29:15.259Z,45.46
2022-08-25T10:31:57.087Z,42.78
2022-08-25T10:34:51.811Z,43.57
2022-08-25T10:37:45.434Z,42.62
2022-08-25T10:40:16.658Z,42.68
2022-08-25T10:42:56.145Z,41.73
2022-08-25T10:45:45.440Z,41.54
2022-08-25T10:48:18.101Z,40.83
2022-08-25T10:50:55.083Z,41.25
2022-08-25T10:53:46.426Z,39.56
2022-08-25T10:56:25.205Z,41.93
2022-08-25T10:59:09.254Z,40.72
2022-08-25T11:01:48.166Z,41.25
2022-08-25T11:04:34.603Z,41.96
2022-08-25T11:07:27.215Z,42.12
2022-08-25T11:09:58.058Z,40.73
2022-08-25T11:12:36.185Z,39.63
2022-08-25T11:15:37.744Z,38.74
2022-08-25T11:18:14.569Z,40.04
2022-08-25T11:20:52.093Z,40.26
2022-08-25T11:23:35.562Z,39.23
2022-08-25T11:26:14.124Z,40.09
2022-08-25T11:28:59.459Z,39.35
2022-08-25T11:31:27.804Z,40.77
2022-08-25T11:33:55.825Z,40.36
2022-08-25T11:36:32.323Z,38.96
2022-08-25T11:39:20.916Z,38.42
2022-08-25T11:42:30.211Z,38.76
2022-08-25T11:45:29.064Z,39.42
2022-08-25T11:48:15.808Z,40.48
2022-08-25T11:51:05.004Z,39.99
2022-08-25T11:53:34.719Z,39.15
2022-08-25T11:56:27.516Z,39.50
2022-08-25T11:58:55.011Z,38.53
2022-08-25T12:01:42.642Z,37.34
2022-08-25T12:04:16.444Z,39.67
2022-08-25T12:07:05.890Z,36.92
2022-08-25T12:09:54.591Z,35.38
2022-08-25T12:12:58.482Z,35.80
2022-08-25T12:15:55.283Z,37.74
2022-08-25T12:18:22.926Z,36.80
2022-08-25T12:21:11.052Z,37.00
2022-08-25T12:24:03.413Z,37.08
2022-08-25T12:26:33.920Z,35.87
2022-08-25T12:29:22.430Z,35.97
2022-08-25T12:32:24.285Z,36.70
2022-08-25T12:35:13.824Z,35.71
2022-08-25T12:37:56.070Z,35.16
2022-08-25T12:40:33.486Z,37.59
2022-08-25T12:43:11.442Z,37.77
2022-08-25T12:45:49.653Z,40.86
2022-08-25T12:48:26.402Z,40.52
2022-08-25T12:51:01.286Z,37.98
2022-08-25T12:53:28.814Z,38.35
2022-08-25T12:56:08.991Z,38.52
2022-08-25T12:59:15.781Z,39.15
2022-08-25T13:02:03.169Z,37.58
2022-08-25T13:04:59.586Z,37.18
2022-08-25T13:08:02.812Z,36.97
2022-08-25T13:10:58.481Z,35.11
2022-08-25T13:13:40.400Z,36.57
2022-08-25T13:16:16.022Z,38.68
2022-08-25T13:18:43.631Z,39.63
2022-08-25T13:21:38.904Z,40.68
2022-08-25T13:24:10.280Z,39.84
2022-08-25T13:26:48.041Z,41.60
2022-08-25T13:29:20.861Z,41.25
2022-08-25T13:31:59.282Z,41.32
2022-08-25T13:34:35.007Z,40.54
2022-08-25T13:37:32.354Z,41.58
2022-08-25T13:40:27.325Z,41.10
2022-08-25T13:43:05.569Z,41.60
2022-08-25T13:45:41.138Z,40.72
2022-08-25T13:48:20.895Z,39.88
2022-08-25T13:50:52.099Z,41.10
2022-08-25T13:53:25.599Z,39.82
2022-08-25T13:55:57.131Z,39.77
2022-08-25T13:58:44.891Z,38.84
2022-08-25T14:01:23.633Z,36.86
2022-08-25T14:04:32.700Z,37.54
2022-08-25T14:07:19.350Z,37.18
2022-08-25T14:09:57.239Z,39.04
2022-08-25T14:12:30.406Z,38.87
2022-08-25T14:15:25.942Z,38.49
2022-08-25T14:18:06.621Z,41.20
2022-08-25T14:20:36.305Z,41.26
2022-08-25T14:23:09.971Z,40.93
2022-08-25T14:25:42.208Z,40.35
2022-08-25T14:28:14.040Z,40.89
2022-08-25T14:30:46.704Z,40.94
2022-08-25T14:33:16.533Z,40.09
2022-08-25T14:35:50.251Z,39.48
2022-08-25T14:38:19.760Z,38.55
2022-08-25T14:40:48.357Z,38.79
2022-08-25T14:43:15.896Z,39.90
2022-08-25T14:45:45.941Z,40.70
2022-08-25T14:48:25.265Z,40.65
2022-08-25T14:50:54.566Z,40.88
2022-08-25T14:53:22.369Z,40.39
2022-08-25T14:55:53.768Z,39.79
2022-08-25T14:58:28.081Z,39.35
2022-08-25T15:01:02.935Z,39.85
2022-08-25T15:03:35.599Z,40.11
2022-08-25T15:06:04.303Z,41.08
2022-08-25T15:08:50.699Z,40.47
2022-08-25T15:11:18.448Z,40.71
2022-08-25T15:13:49.467Z,40.89
2022-08-25T15:16:39.605Z,41.82
2022-08-25T15:19:14.416Z,41.18
2022-08-25T15:21:44.571Z,41.19
2022-08-25T15:24:17.511Z,42.37
2022-08-25T15:29:24.294Z,43.40
2022-08-25T15:31:52.321Z,41.97
2022-08-25T15:34:19.844Z,42.32
2022-08-25T15:36:48.071Z,41.07
2022-08-25T15:39:18.808Z,41.98
2022-08-25T15:41:49.212Z,40.70
2022-08-25T15:44:17.422Z,41.49
2022-08-25T15:46:47.106Z,41.47
2022-08-25T15:49:23.150Z,42.28
2022-08-25T15:51:52.938Z,42.21
2022-08-25T15:54:23.122Z,42.36
2022-08-25T15:56:51.732Z,43.39
2022-08-25T15:59:21.625Z,42.58
2022-08-25T16:01:53.529Z,42.35
2022-08-25T16:04:23.395Z,42.91
2022-08-25T16:06:51.996Z,43.35
2022-08-25T16:09:22.901Z,41.84
2022-08-25T16:11:56.930Z,42.06
2022-08-25T16:14:26.334Z,42.54
2022-08-25T16:16:58.322Z,42.54
2022-08-25T16:19:30.084Z,42.77
2022-08-25T16:21:58.499Z,43.89
2022-08-25T16:24:27.520Z,44.50
2022-08-25T16:27:00.214Z,43.87
2022-08-25T16:29:39.925Z,43.18
2022-08-25T16:32:08.197Z,44.04
2022-08-25T16:34:36.697Z,44.22
2022-08-25T16:37:05.026Z,43.52
2022-08-25T16:39:34.207Z,43.30
2022-08-25T16:42:01.577Z,43.31
2022-08-25T16:44:29.416Z,43.86
2022-08-25T16:46:57.668Z,43.71
2022-08-25T16:49:25.440Z,43.36
2022-08-25T16:51:57.611Z,44.35
2022-08-25T16:54:45.553Z,43.77
2022-08-25T16:57:13.632Z,43.34
2022-08-25T16:59:42.537Z,43.99
2022-08-25T17:02:12.128Z,44.49
2022-08-25T17:04:40.766Z,44.59
2022-08-25T17:07:08.552Z,44.14
2022-08-25T17:09:36.365Z,44.64
2022-08-25T17:12:05.102Z,45.11
2022-08-25T17:14:33.072Z,45.33
2022-08-25T17:17:01.102Z,46.21
2022-08-25T17:19:28.961Z,45.19
2022-08-25T17:21:58.482Z,45.49
2022-08-25T17:24:29.367Z,45.76
2022-08-25T17:26:58.203Z,46.75
2022-08-25T17:29:26.239Z,46.91
2022-08-25T17:31:53.918Z,46.59
2022-08-25T17:34:23.249Z,46.32
2022-08-25T17:36:51.512Z,46.76
2022-08-25T17:39:22.100Z,46.57
2022-08-25T17:41:51.011Z,46.57
2022-08-25T17:44:18.804Z,46.94
2022-08-25T17:46:48.209Z,47.23
2022-08-25T17:49:17.090Z,46.98
2022-08-25T17:51:45.259Z,46.83
2022-08-25T17:54:13.343Z,47.50
2022-08-25T17:56:41.319Z,47.90
2022-08-25T17:59:08.798Z,48.69
2022-08-25T18:01:40.515Z,48.65
2022-08-25T18:04:17.398Z,49.19
2022-08-25T18:06:47.556Z,49.30
2022-08-25T18:09:16.111Z,50.42
2022-08-25T18:11:45.600Z,49.32
2022-08-25T18:14:14.373Z,49.82
2022-08-25T18:16:42.494Z,50.89
2022-08-25T18:19:10.960Z,51.09
2022-08-25T18:21:39.008Z,51.56
2022-08-25T18:24:07.920Z,51.30
2022-08-25T18:26:35.780Z,50.69
2022-08-25T18:29:03.956Z,51.00
2022-08-25T18:31:31.844Z,51.52
2022-08-25T18:33:59.745Z,52.31
2022-08-25T18:36:27.308Z,52.46
2022-08-25T18:39:14.340Z,52.61
2022-08-25T18:41:45.022Z,53.22
2022-08-25T18:44:15.438Z,54.14
2022-08-25T18:46:43.435Z,53.70
2022-08-25T18:49:15.667Z,53.59
2022-08-25T18:51:44.850Z,53.43
2022-08-25T18:54:22.806Z,53.74
2022-08-25T18:56:53.185Z,53.77
2022-08-25T18:59:23.604Z,53.88
2022-08-25T19:01:53.182Z,53.86
2022-08-25T19:04:20.948Z,53.81
2022-08-25T19:06:56.282Z,53.85
2022-08-25T19:09:23.678Z,54.15
2022-08-25T19:11:52.676Z,54.89
2022-08-25T19:14:22.398Z,55.09
2022-08-25T19:16:52.065Z,56.12
2022-08-25T19:19:20.685Z,56.33
2022-08-25T19:21:48.603Z,56.24
2022-08-25T19:24:19.383Z,55.78
2022-08-25T19:26:46.864Z,55.75
2022-08-25T19:29:17.320Z,56.12
2022-08-25T19:31:47.739Z,56.47
2022-08-25T19:34:21.097Z,55.80
2022-08-25T19:36:48.683Z,55.41
2022-08-25T19:39:17.049Z,56.26
2022-08-25T19:41:45.798Z,56.35
2022-08-25T19:44:13.430Z,57.18
2022-08-25T19:46:43.380Z,56.62
2022-08-25T19:49:14.568Z,56.25
2022-08-25T19:51:46.093Z,55.69
2022-08-25T19:54:20.738Z,55.56
2022-08-25T19:56:54.962Z,55.90
2022-08-25T19:59:25.821Z,55.67
2022-08-25T20:01:54.408Z,56.31
2022-08-25T20:04:24.127Z,55.39
2022-08-25T20:06:53.267Z,56.07
2022-08-25T20:09:39.008Z,56.41
2022-08-25T20:12:10.451Z,56.92
2022-08-25T20:14:39.120Z,57.35
2022-08-25T20:17:14.451Z,56.95
2022-08-25T20:19:57.054Z,56.60
2022-08-25T20:22:29.971Z,56.29
2022-08-25T20:25:01.221Z,56.77
2022-08-25T20:27:33.783Z,57.58
2022-08-25T20:30:02.569Z,57.75
2022-08-25T20:32:32.607Z,58.16
2022-08-25T20:35:01.166Z,57.92
2022-08-25T20:37:29.492Z,57.96
2022-08-25T20:39:57.265Z,58.19
2022-08-25T20:42:24.872Z,58.21
2022-08-25T20:44:52.939Z,58.03
2022-08-25T20:47:21.123Z,58.53
2022-08-25T20:49:50.232Z,59.04
2022-08-25T20:52:19.202Z,59.65
2022-08-25T20:54:49.432Z,59.53
2022-08-25T20:57:25.518Z,58.76
2022-08-25T20:59:54.769Z,58.55
2022-08-25T21:02:23.902Z,59.49
2022-08-25T21:04:52.608Z,59.47
2022-08-25T21:07:20.851Z,60.16
2022-08-25T21:09:51.975Z,59.60
2022-08-25T21:12:19.936Z,60.51
2022-08-25T21:14:47.418Z,60.07
2022-08-25T21:17:15.727Z,59.31
2022-08-25T21:22:16.410Z,60.08
2022-08-25T21:24:44.979Z,59.89
2022-08-25T21:27:12.466Z,59.67
2022-08-25T21:29:44.643Z,59.65
2022-08-25T21:32:23.702Z,59.14
2022-08-25T21:34:55.270Z,61.00
2022-08-25T21:37:24.863Z,61.29
2022-08-25T21:39:53.196Z,60.81
2022-08-25T21:42:22.351Z,60.69
2022-08-25T21:44:50.763Z,61.89
2022-08-25T21:47:20.826Z,61.57
2022-08-25T21:49:49.903Z,61.45
2022-08-25T21:52:18.013Z,60.25
2022-08-25T21:54:45.812Z,61.03
2022-08-25T21:57:13.350Z,61.83
2022-08-25T21:59:43.681Z,61.37
2022-08-25T22:02:13.160Z,60.52
2022-08-25T22:04:42.223Z,60.69
2022-08-25T22:07:11.001Z,60.47
2022-08-25T22:09:40.017Z,60.26
2022-08-25T22:12:08.202Z,59.93
2022-08-25T22:14:37.701Z,59.94
2022-08-25T22:17:09.011Z,60.43
2022-08-25T22:19:38.789Z,60.62
2022-08-25T22:22:06.887Z,60.29
2022-08-25T22:24:34.460Z,60.17
2022-08-25T22:27:02.206Z,60.59
2022-08-25T22:29:30.515Z,60.98
2022-08-25T22:32:02.145Z,61.42
2022-08-25T22:34:34.567Z,60.54
2022-08-25T22:37:04.359Z,61.23
2022-08-25T22:39:34.268Z,61.04
2022-08-25T22:42:03.300Z,61.06
2022-08-25T22:44:30.846Z,60.23
2022-08-25T22:46:58.519Z,60.74
2022-08-25T22:49:28.861Z,59.95
2022-08-25T22:51:56.306Z,61.29
2022-08-25T22:54:25.439Z,60.88
2022-08-25T22:56:53.482Z,61.80
2022-08-25T22:59:22.458Z,60.99
2022-08-25T23:01:52.663Z,61.19
2022-08-25T23:04:22.743Z,60.82
2022-08-25T23:06:52.757Z,60.66
2022-08-25T23:09:20.946Z,61.23
2022-08-25T23:11:51.339Z,61.28
2022-08-25T23:14:20.067Z,61.31
2022-08-25T23:16:50.142Z,61.44
2022-08-25T23:19:18.315Z,61.39
2022-08-25T23:22:06.149Z,61.19
2022-08-25T23:24:33.512Z,62.51
2022-08-25T23:27:03.954Z,63.07
2022-08-25T23:29:33.136Z,62.16
2022-08-25T23:32:00.903Z,62.52
2022-08-25T23:34:28.716Z,62.84
2022-08-25T23:36:56.948Z,62.85
2022-08-25T23:39:25.168Z,62.01
2022-08-25T23:41:53.161Z,62.20
2022-08-25T23:44:22.504Z,63.12
2022-08-25T23:46:52.491Z,63.32
2022-08-25T23:49:22.616Z,62.93
2022-08-25T23:51:52.744Z,63.49
2022-08-25T23:54:21.311Z,62.72
2022-08-25T23:56:52.484Z,63.58
2022-08-25T23:59:24.519Z,63.80
